sensor_id;sensor_type;location;lat;lon;timestamp;temperature;humidity
15413;DHT22;7805;49.554;7.632;2022-10-22T00:01:50;15.70;99.90
15413;DHT22;7805;49.554;7.632;2022-10-22T00:04:15;16.00;99.90
15413;DHT22;7805;49.554;7.632;2022-10-22T00:06:41;15.80;99.90
15413;DHT22;7805;49.554;7.632;2022-10-22T00:09:10;15.80;99.90
15413;DHT22;7805;49.554;7.632;2022-10-22T00:11:35;15.80;99.90
15413;DHT22;7805;49.554;7.632;2022-10-22T00:14:01;15.80;99.90
15413;DHT22;7805;49.554;7.632;2022-10-22T00:16:26;15.70;99.90
15413;DHT22;7805;49.554;7.632;2022-10-22T00:18:52;15.70;99.90
15413;DHT22;7805;49.554;7.632;2022-10-22T00:21:17;15.60;99.90
15413;DHT22;7805;49.554;7.632;2022-10-22T00:23:43;15.90;99.90
15413;DHT22;7805;49.554;7.632;2022-10-22T00:26:10;15.70;99.90
15413;DHT22;7805;49.554;7.632;2022-10-22T00:28:36;15.70;99.90
15413;DHT22;7805;49.554;7.632;2022-10-22T00:31:01;15.90;99.90
15413;DHT22;7805;49.554;7.632;2022-10-22T00:33:28;15.70;99.90
15413;DHT22;7805;49.554;7.632;2022-10-22T00:35:54;15.80;99.90
15413;DHT22;7805;49.554;7.632;2022-10-22T00:38:20;15.70;99.90
15413;DHT22;7805;49.554;7.632;2022-10-22T00:40:46;15.80;99.90
15413;DHT22;7805;49.554;7.632;2022-10-22T00:43:14;15.80;99.90
15413;DHT22;7805;49.554;7.632;2022-10-22T00:45:41;15.80;99.90
15413;DHT22;7805;49.554;7.632;2022-10-22T00:48:18;15.90;99.90
15413;DHT22;7805;49.554;7.632;2022-10-22T00:50:54;15.80;99.90
15413;DHT22;7805;49.554;7.632;2022-10-22T00:53:30;15.80;99.90
15413;DHT22;7805;49.554;7.632;2022-10-22T00:55:57;15.80;99.90
15413;DHT22;7805;49.554;7.632;2022-10-22T00:58:26;15.80;99.90
15413;DHT22;7805;49.554;7.632;2022-10-22T01:00:53;15.80;99.90
15413;DHT22;7805;49.554;7.632;2022-10-22T01:03:19;15.80;99.90
15413;DHT22;7805;49.554;7.632;2022-10-22T01:05:59;17.80;99.90
15413;DHT22;7805;49.554;7.632;2022-10-22T01:08:52;15.80;99.90
15413;DHT22;7805;49.554;7.632;2022-10-22T01:11:49;15.80;99.90
15413;DHT22;7805;49.554;7.632;2022-10-22T01:14:17;15.80;99.90
15413;DHT22;7805;49.554;7.632;2022-10-22T01:22:31;15.70;99.90
15413;DHT22;7805;49.554;7.632;2022-10-22T01:30:39;15.80;99.90
15413;DHT22;7805;49.554;7.632;2022-10-22T01:33:09;15.90;99.90
15413;DHT22;7805;49.554;7.632;2022-10-22T01:35:39;15.90;99.90
15413;DHT22;7805;49.554;7.632;2022-10-22T01:38:09;15.90;99.90
15413;DHT22;7805;49.554;7.632;2022-10-22T01:40:35;16.00;99.90
15413;DHT22;7805;49.554;7.632;2022-10-22T01:43:04;16.20;99.90
15413;DHT22;7805;49.554;7.632;2022-10-22T01:45:42;16.00;99.90
15413;DHT22;7805;49.554;7.632;2022-10-22T01:53:44;16.00;99.90
15413;DHT22;7805;49.554;7.632;2022-10-22T01:56:30;16.00;99.90
15413;DHT22;7805;49.554;7.632;2022-10-22T01:59:18;16.10;99.90
15413;DHT22;7805;49.554;7.632;2022-10-22T02:07:05;16.10;99.90
15413;DHT22;7805;49.554;7.632;2022-10-22T02:09:33;16.10;99.90
15413;DHT22;7805;49.554;7.632;2022-10-22T02:12:01;16.00;99.90
15413;DHT22;7805;49.554;7.632;2022-10-22T02:14:28;16.10;99.90
15413;DHT22;7805;49.554;7.632;2022-10-22T02:16:56;16.10;99.90
15413;DHT22;7805;49.554;7.632;2022-10-22T02:19:34;16.10;99.90
15413;DHT22;7805;49.554;7.632;2022-10-22T02:22:03;16.00;99.90
15413;DHT22;7805;49.554;7.632;2022-10-22T02:24:29;16.00;99.90
15413;DHT22;7805;49.554;7.632;2022-10-22T02:29:31;16.00;99.90
15413;DHT22;7805;49.554;7.632;2022-10-22T02:32:00;16.00;99.90
15413;DHT22;7805;49.554;7.632;2022-10-22T02:34:29;16.00;99.90
15413;DHT22;7805;49.554;7.632;2022-10-22T02:36:56;16.00;99.90
15413;DHT22;7805;49.554;7.632;2022-10-22T02:39:23;16.00;99.90
15413;DHT22;7805;49.554;7.632;2022-10-22T02:41:49;16.00;99.90
15413;DHT22;7805;49.554;7.632;2022-10-22T02:44:19;16.10;99.90
15413;DHT22;7805;49.554;7.632;2022-10-22T02:46:44;16.00;99.90
15413;DHT22;7805;49.554;7.632;2022-10-22T02:49:10;16.00;99.90
15413;DHT22;7805;49.554;7.632;2022-10-22T02:51:36;16.00;99.90
15413;DHT22;7805;49.554;7.632;2022-10-22T02:54:01;16.20;99.90
15413;DHT22;7805;49.554;7.632;2022-10-22T02:56:27;16.00;99.90
15413;DHT22;7805;49.554;7.632;2022-10-22T02:58:52;16.00;99.90
15413;DHT22;7805;49.554;7.632;2022-10-22T03:01:18;16.00;99.90
15413;DHT22;7805;49.554;7.632;2022-10-22T03:03:43;15.90;99.90
15413;DHT22;7805;49.554;7.632;2022-10-22T03:06:09;16.00;99.90
15413;DHT22;7805;49.554;7.632;2022-10-22T03:08:35;15.90;99.90
15413;DHT22;7805;49.554;7.632;2022-10-22T03:11:00;16.00;99.90
15413;DHT22;7805;49.554;7.632;2022-10-22T03:13:26;15.90;99.90
15413;DHT22;7805;49.554;7.632;2022-10-22T03:15:51;15.80;99.90
15413;DHT22;7805;49.554;7.632;2022-10-22T03:18:17;15.80;99.90
15413;DHT22;7805;49.554;7.632;2022-10-22T03:20:43;15.80;99.90
15413;DHT22;7805;49.554;7.632;2022-10-22T03:23:10;15.70;99.90
15413;DHT22;7805;49.554;7.632;2022-10-22T03:25:39;15.70;99.90
15413;DHT22;7805;49.554;7.632;2022-10-22T03:28:07;15.80;99.90
15413;DHT22;7805;49.554;7.632;2022-10-22T03:30:34;15.80;99.90
15413;DHT22;7805;49.554;7.632;2022-10-22T03:32:59;15.60;99.90
15413;DHT22;7805;49.554;7.632;2022-10-22T03:35:25;15.60;99.90
15413;DHT22;7805;49.554;7.632;2022-10-22T03:37:51;15.50;99.90
15413;DHT22;7805;49.554;7.632;2022-10-22T03:40:17;15.70;99.90
15413;DHT22;7805;49.554;7.632;2022-10-22T03:42:43;15.30;99.90
15413;DHT22;7805;49.554;7.632;2022-10-22T03:45:09;15.30;99.90
15413;DHT22;7805;49.554;7.632;2022-10-22T03:47:34;15.30;99.90
15413;DHT22;7805;49.554;7.632;2022-10-22T03:50:02;15.30;99.90
15413;DHT22;7805;49.554;7.632;2022-10-22T03:52:27;15.30;99.90
15413;DHT22;7805;49.554;7.632;2022-10-22T03:54:53;15.20;99.90
15413;DHT22;7805;49.554;7.632;2022-10-22T03:57:19;15.20;99.90
15413;DHT22;7805;49.554;7.632;2022-10-22T03:59:45;15.20;99.90
15413;DHT22;7805;49.554;7.632;2022-10-22T04:02:12;15.30;99.90
15413;DHT22;7805;49.554;7.632;2022-10-22T04:04:38;15.30;99.90
15413;DHT22;7805;49.554;7.632;2022-10-22T04:07:05;17.20;99.90
15413;DHT22;7805;49.554;7.632;2022-10-22T04:09:31;15.20;99.90
15413;DHT22;7805;49.554;7.632;2022-10-22T04:11:57;15.20;99.90
15413;DHT22;7805;49.554;7.632;2022-10-22T04:14:23;15.20;99.90
15413;DHT22;7805;49.554;7.632;2022-10-22T04:16:48;15.30;99.90
15413;DHT22;7805;49.554;7.632;2022-10-22T04:19:14;15.10;99.90
15413;DHT22;7805;49.554;7.632;2022-10-22T04:21:40;15.00;99.90
15413;DHT22;7805;49.554;7.632;2022-10-22T04:24:05;15.00;99.90
15413;DHT22;7805;49.554;7.632;2022-10-22T04:26:31;15.00;99.90
15413;DHT22;7805;49.554;7.632;2022-10-22T04:28:56;15.10;99.90
15413;DHT22;7805;49.554;7.632;2022-10-22T04:31:24;15.10;99.90
15413;DHT22;7805;49.554;7.632;2022-10-22T04:33:54;15.10;99.90
15413;DHT22;7805;49.554;7.632;2022-10-22T04:36:20;15.30;99.90
15413;DHT22;7805;49.554;7.632;2022-10-22T04:38:46;15.10;99.90
15413;DHT22;7805;49.554;7.632;2022-10-22T04:41:15;15.10;99.90
15413;DHT22;7805;49.554;7.632;2022-10-22T04:43:44;15.20;99.90
15413;DHT22;7805;49.554;7.632;2022-10-22T04:46:10;15.10;99.90
15413;DHT22;7805;49.554;7.632;2022-10-22T04:48:37;15.10;99.90
15413;DHT22;7805;49.554;7.632;2022-10-22T04:51:04;15.10;99.90
15413;DHT22;7805;49.554;7.632;2022-10-22T04:53:30;15.00;99.90
15413;DHT22;7805;49.554;7.632;2022-10-22T04:56:05;14.90;99.90
15413;DHT22;7805;49.554;7.632;2022-10-22T04:58:31;14.80;99.90
15413;DHT22;7805;49.554;7.632;2022-10-22T05:00:56;14.80;99.90
15413;DHT22;7805;49.554;7.632;2022-10-22T05:03:24;14.80;99.90
15413;DHT22;7805;49.554;7.632;2022-10-22T05:05:49;14.70;99.90
15413;DHT22;7805;49.554;7.632;2022-10-22T05:08:15;14.70;99.90
15413;DHT22;7805;49.554;7.632;2022-10-22T05:10:40;14.70;99.90
15413;DHT22;7805;49.554;7.632;2022-10-22T05:13:06;14.60;99.90
15413;DHT22;7805;49.554;7.632;2022-10-22T05:15:32;14.60;99.90
15413;DHT22;7805;49.554;7.632;2022-10-22T05:17:58;14.60;99.90
15413;DHT22;7805;49.554;7.632;2022-10-22T05:20:23;14.70;99.90
15413;DHT22;7805;49.554;7.632;2022-10-22T05:22:49;14.60;99.90
15413;DHT22;7805;49.554;7.632;2022-10-22T05:25:15;14.60;99.90
15413;DHT22;7805;49.554;7.632;2022-10-22T05:27:40;14.60;99.90
15413;DHT22;7805;49.554;7.632;2022-10-22T05:30:06;14.50;99.90
15413;DHT22;7805;49.554;7.632;2022-10-22T05:32:34;14.50;99.90
15413;DHT22;7805;49.554;7.632;2022-10-22T05:34:59;14.50;99.90
15413;DHT22;7805;49.554;7.632;2022-10-22T05:37:25;14.40;99.90
15413;DHT22;7805;49.554;7.632;2022-10-22T05:39:50;14.30;99.90
15413;DHT22;7805;49.554;7.632;2022-10-22T05:42:16;14.30;99.90
15413;DHT22;7805;49.554;7.632;2022-10-22T05:44:41;14.20;99.90
15413;DHT22;7805;49.554;7.632;2022-10-22T05:47:07;14.30;99.90
15413;DHT22;7805;49.554;7.632;2022-10-22T05:49:34;14.30;99.90
15413;DHT22;7805;49.554;7.632;2022-10-22T05:51:59;14.30;99.90
15413;DHT22;7805;49.554;7.632;2022-10-22T05:54:25;14.30;99.90
15413;DHT22;7805;49.554;7.632;2022-10-22T05:56:51;14.30;99.90
15413;DHT22;7805;49.554;7.632;2022-10-22T05:59:17;14.20;99.90
15413;DHT22;7805;49.554;7.632;2022-10-22T06:01:42;14.20;99.90
15413;DHT22;7805;49.554;7.632;2022-10-22T06:04:10;14.20;99.90
15413;DHT22;7805;49.554;7.632;2022-10-22T06:11:50;14.20;99.90
15413;DHT22;7805;49.554;7.632;2022-10-22T06:14:16;14.20;99.90
15413;DHT22;7805;49.554;7.632;2022-10-22T06:16:42;14.10;99.90
15413;DHT22;7805;49.554;7.632;2022-10-22T06:19:10;14.00;99.90
15413;DHT22;7805;49.554;7.632;2022-10-22T06:21:36;14.00;99.90
15413;DHT22;7805;49.554;7.632;2022-10-22T06:24:02;14.10;99.90
15413;DHT22;7805;49.554;7.632;2022-10-22T06:26:28;14.00;99.90
15413;DHT22;7805;49.554;7.632;2022-10-22T06:28:55;13.90;99.90
15413;DHT22;7805;49.554;7.632;2022-10-22T06:31:21;13.90;99.90
15413;DHT22;7805;49.554;7.632;2022-10-22T06:33:47;13.90;99.90
15413;DHT22;7805;49.554;7.632;2022-10-22T06:36:15;13.80;99.90
15413;DHT22;7805;49.554;7.632;2022-10-22T06:38:41;13.90;99.90
15413;DHT22;7805;49.554;7.632;2022-10-22T06:41:12;13.80;99.90
15413;DHT22;7805;49.554;7.632;2022-10-22T06:43:39;13.90;99.90
15413;DHT22;7805;49.554;7.632;2022-10-22T06:46:07;13.80;99.90
15413;DHT22;7805;49.554;7.632;2022-10-22T06:48:34;13.80;99.90
15413;DHT22;7805;49.554;7.632;2022-10-22T06:51:04;13.90;99.90
15413;DHT22;7805;49.554;7.632;2022-10-22T06:53:30;13.80;99.90
15413;DHT22;7805;49.554;7.632;2022-10-22T06:55:55;15.00;99.90
15413;DHT22;7805;49.554;7.632;2022-10-22T06:58:21;13.80;99.90
15413;DHT22;7805;49.554;7.632;2022-10-22T07:00:47;13.70;99.90
15413;DHT22;7805;49.554;7.632;2022-10-22T07:03:13;13.60;99.90
15413;DHT22;7805;49.554;7.632;2022-10-22T07:05:40;13.60;99.90
15413;DHT22;7805;49.554;7.632;2022-10-22T07:08:06;13.60;99.90
15413;DHT22;7805;49.554;7.632;2022-10-22T07:10:31;13.70;99.90
15413;DHT22;7805;49.554;7.632;2022-10-22T07:12:57;13.70;99.90
15413;DHT22;7805;49.554;7.632;2022-10-22T07:15:23;13.70;99.90
15413;DHT22;7805;49.554;7.632;2022-10-22T07:17:49;13.80;99.90
15413;DHT22;7805;49.554;7.632;2022-10-22T07:20:16;13.80;99.90
15413;DHT22;7805;49.554;7.632;2022-10-22T07:22:43;13.90;99.90
15413;DHT22;7805;49.554;7.632;2022-10-22T07:25:09;13.80;99.90
15413;DHT22;7805;49.554;7.632;2022-10-22T07:27:34;13.90;99.90
15413;DHT22;7805;49.554;7.632;2022-10-22T07:30:00;14.20;99.90
15413;DHT22;7805;49.554;7.632;2022-10-22T07:32:26;15.00;99.90
15413;DHT22;7805;49.554;7.632;2022-10-22T07:34:51;15.80;99.90
15413;DHT22;7805;49.554;7.632;2022-10-22T07:37:17;16.70;99.90
15413;DHT22;7805;49.554;7.632;2022-10-22T07:39:49;17.40;99.90
15413;DHT22;7805;49.554;7.632;2022-10-22T07:42:15;18.10;99.90
15413;DHT22;7805;49.554;7.632;2022-10-22T07:44:40;18.80;99.90
15413;DHT22;7805;49.554;7.632;2022-10-22T07:47:07;19.20;99.90
15413;DHT22;7805;49.554;7.632;2022-10-22T07:49:33;19.40;99.90
15413;DHT22;7805;49.554;7.632;2022-10-22T07:51:58;19.90;99.90
15413;DHT22;7805;49.554;7.632;2022-10-22T07:54:24;20.60;99.90
15413;DHT22;7805;49.554;7.632;2022-10-22T07:56:50;20.80;99.90
15413;DHT22;7805;49.554;7.632;2022-10-22T07:59:15;20.50;99.90
15413;DHT22;7805;49.554;7.632;2022-10-22T08:01:41;20.10;99.90
15413;DHT22;7805;49.554;7.632;2022-10-22T08:04:07;20.20;99.90
15413;DHT22;7805;49.554;7.632;2022-10-22T08:06:34;20.60;99.90
15413;DHT22;7805;49.554;7.632;2022-10-22T08:09:00;20.70;99.90
15413;DHT22;7805;49.554;7.632;2022-10-22T08:11:26;20.80;99.90
15413;DHT22;7805;49.554;7.632;2022-10-22T08:13:52;20.80;99.90
15413;DHT22;7805;49.554;7.632;2022-10-22T08:16:18;20.60;99.90
15413;DHT22;7805;49.554;7.632;2022-10-22T08:18:44;20.80;99.90
15413;DHT22;7805;49.554;7.632;2022-10-22T08:21:11;21.20;99.90
15413;DHT22;7805;49.554;7.632;2022-10-22T08:23:36;21.20;99.90
15413;DHT22;7805;49.554;7.632;2022-10-22T08:26:03;21.60;99.90
15413;DHT22;7805;49.554;7.632;2022-10-22T08:28:29;21.80;99.90
15413;DHT22;7805;49.554;7.632;2022-10-22T08:30:57;22.10;99.90
15413;DHT22;7805;49.554;7.632;2022-10-22T08:33:22;22.40;99.90
15413;DHT22;7805;49.554;7.632;2022-10-22T08:35:49;22.30;99.90
15413;DHT22;7805;49.554;7.632;2022-10-22T08:38:15;22.00;99.90
15413;DHT22;7805;49.554;7.632;2022-10-22T08:40:42;22.00;99.90
15413;DHT22;7805;49.554;7.632;2022-10-22T08:48:40;22.40;99.90
15413;DHT22;7805;49.554;7.632;2022-10-22T08:51:14;22.50;99.90
15413;DHT22;7805;49.554;7.632;2022-10-22T08:56:47;22.70;99.90
15413;DHT22;7805;49.554;7.632;2022-10-22T08:59:49;22.50;99.90
15413;DHT22;7805;49.554;7.632;2022-10-22T09:05:01;21.80;99.90
15413;DHT22;7805;49.554;7.632;2022-10-22T09:07:30;21.80;99.90
15413;DHT22;7805;49.554;7.632;2022-10-22T09:09:57;22.20;99.90
15413;DHT22;7805;49.554;7.632;2022-10-22T09:12:25;22.50;99.90
15413;DHT22;7805;49.554;7.632;2022-10-22T09:14:51;22.70;99.90
15413;DHT22;7805;49.554;7.632;2022-10-22T09:17:28;22.90;99.90
15413;DHT22;7805;49.554;7.632;2022-10-22T09:20:03;23.00;99.90
15413;DHT22;7805;49.554;7.632;2022-10-22T09:22:45;22.90;99.90
15413;DHT22;7805;49.554;7.632;2022-10-22T09:25:25;22.80;99.90
15413;DHT22;7805;49.554;7.632;2022-10-22T09:27:51;22.60;99.90
15413;DHT22;7805;49.554;7.632;2022-10-22T09:30:25;22.50;99.90
15413;DHT22;7805;49.554;7.632;2022-10-22T09:32:59;21.90;99.90
15413;DHT22;7805;49.554;7.632;2022-10-22T09:35:26;22.00;99.90
15413;DHT22;7805;49.554;7.632;2022-10-22T09:37:55;22.10;99.90
15413;DHT22;7805;49.554;7.632;2022-10-22T09:40:22;22.40;99.90
15413;DHT22;7805;49.554;7.632;2022-10-22T09:42:48;22.40;99.90
15413;DHT22;7805;49.554;7.632;2022-10-22T09:45:23;22.60;99.90
15413;DHT22;7805;49.554;7.632;2022-10-22T09:47:49;22.40;99.90
15413;DHT22;7805;49.554;7.632;2022-10-22T09:50:54;22.20;99.90
15413;DHT22;7805;49.554;7.632;2022-10-22T09:53:25;22.20;99.90
15413;DHT22;7805;49.554;7.632;2022-10-22T09:55:54;22.50;99.90
15413;DHT22;7805;49.554;7.632;2022-10-22T09:58:20;22.80;99.90
15413;DHT22;7805;49.554;7.632;2022-10-22T10:00:51;23.20;99.90
15413;DHT22;7805;49.554;7.632;2022-10-22T10:03:21;23.50;99.90
15413;DHT22;7805;49.554;7.632;2022-10-22T10:05:53;23.80;99.90
15413;DHT22;7805;49.554;7.632;2022-10-22T10:08:18;24.00;99.90
15413;DHT22;7805;49.554;7.632;2022-10-22T10:10:54;24.00;99.90
15413;DHT22;7805;49.554;7.632;2022-10-22T10:21:22;23.30;99.90
15413;DHT22;7805;49.554;7.632;2022-10-22T10:27:14;22.50;99.90
15413;DHT22;7805;49.554;7.632;2022-10-22T10:32:55;22.90;99.90
15413;DHT22;7805;49.554;7.632;2022-10-22T10:46:01;23.50;99.90
15413;DHT22;7805;49.554;7.632;2022-10-22T10:56:46;24.70;99.10
15413;DHT22;7805;49.554;7.632;2022-10-22T11:07:37;24.80;97.70
15413;DHT22;7805;49.554;7.632;2022-10-22T11:10:27;24.90;97.40
15413;DHT22;7805;49.554;7.632;2022-10-22T11:12:59;25.10;97.30
15413;DHT22;7805;49.554;7.632;2022-10-22T11:17:55;25.70;96.70
15413;DHT22;7805;49.554;7.632;2022-10-22T11:23:34;26.00;95.30
15413;DHT22;7805;49.554;7.632;2022-10-22T11:26:04;25.90;94.50
15413;DHT22;7805;49.554;7.632;2022-10-22T11:28:44;25.80;95.30
15413;DHT22;7805;49.554;7.632;2022-10-22T11:31:16;25.60;94.20
15413;DHT22;7805;49.554;7.632;2022-10-22T11:33:57;25.50;94.50
15413;DHT22;7805;49.554;7.632;2022-10-22T11:36:26;25.60;94.80
15413;DHT22;7805;49.554;7.632;2022-10-22T11:38:53;25.80;95.30
15413;DHT22;7805;49.554;7.632;2022-10-22T11:41:24;26.10;95.00
15413;DHT22;7805;49.554;7.632;2022-10-22T11:43:55;25.90;95.10
15413;DHT22;7805;49.554;7.632;2022-10-22T11:51:39;26.40;94.00
15413;DHT22;7805;49.554;7.632;2022-10-22T11:54:40;26.50;94.10
15413;DHT22;7805;49.554;7.632;2022-10-22T12:04:55;26.90;93.30
15413;DHT22;7805;49.554;7.632;2022-10-22T12:10:20;27.10;92.80
15413;DHT22;7805;49.554;7.632;2022-10-22T12:13:01;27.20;93.20
15413;DHT22;7805;49.554;7.632;2022-10-22T12:15:27;27.40;92.60
15413;DHT22;7805;49.554;7.632;2022-10-22T12:18:02;27.70;92.70
15413;DHT22;7805;49.554;7.632;2022-10-22T12:20:29;27.90;92.30
15413;DHT22;7805;49.554;7.632;2022-10-22T12:22:56;27.80;91.60
15413;DHT22;7805;49.554;7.632;2022-10-22T12:25:27;27.60;90.90
15413;DHT22;7805;49.554;7.632;2022-10-22T12:27:56;27.70;91.80
15413;DHT22;7805;49.554;7.632;2022-10-22T12:32:55;27.70;90.80
15413;DHT22;7805;49.554;7.632;2022-10-22T12:35:24;27.60;91.70
15413;DHT22;7805;49.554;7.632;2022-10-22T12:37:51;28.10;91.60
15413;DHT22;7805;49.554;7.632;2022-10-22T12:40:23;28.70;90.50
15413;DHT22;7805;49.554;7.632;2022-10-22T12:42:54;28.60;89.10
15413;DHT22;7805;49.554;7.632;2022-10-22T12:45:25;28.40;88.90
15413;DHT22;7805;49.554;7.632;2022-10-22T12:47:57;28.50;89.40
15413;DHT22;7805;49.554;7.632;2022-10-22T12:50:36;28.30;89.10
15413;DHT22;7805;49.554;7.632;2022-10-22T12:53:06;27.90;89.60
15413;DHT22;7805;49.554;7.632;2022-10-22T12:55:37;27.40;89.50
15413;DHT22;7805;49.554;7.632;2022-10-22T12:58:05;26.50;90.40
15413;DHT22;7805;49.554;7.632;2022-10-22T13:00:33;26.10;91.70
15413;DHT22;7805;49.554;7.632;2022-10-22T13:03:04;26.00;92.50
15413;DHT22;7805;49.554;7.632;2022-10-22T13:05:32;26.00;92.70
15413;DHT22;7805;49.554;7.632;2022-10-22T13:08:08;26.20;92.70
15413;DHT22;7805;49.554;7.632;2022-10-22T13:10:37;26.20;92.50
15413;DHT22;7805;49.554;7.632;2022-10-22T13:13:03;26.20;92.30
15413;DHT22;7805;49.554;7.632;2022-10-22T13:18:18;28.80;91.00
15413;DHT22;7805;49.554;7.632;2022-10-22T13:20:57;30.80;88.00
15413;DHT22;7805;49.554;7.632;2022-10-22T13:23:27;32.00;83.10
15413;DHT22;7805;49.554;7.632;2022-10-22T13:28:29;33.60;75.50
15413;DHT22;7805;49.554;7.632;2022-10-22T13:31:07;33.60;73.00
15413;DHT22;7805;49.554;7.632;2022-10-22T13:33:42;33.60;72.70
15413;DHT22;7805;49.554;7.632;2022-10-22T13:36:13;34.00;69.10
15413;DHT22;7805;49.554;7.632;2022-10-22T13:38:39;34.00;68.40
15413;DHT22;7805;49.554;7.632;2022-10-22T13:43:48;34.60;65.00
15413;DHT22;7805;49.554;7.632;2022-10-22T13:46:14;34.80;66.00
15413;DHT22;7805;49.554;7.632;2022-10-22T13:48:40;34.80;64.90
15413;DHT22;7805;49.554;7.632;2022-10-22T13:51:15;34.50;63.60
15413;DHT22;7805;49.554;7.632;2022-10-22T13:53:41;34.00;61.40
15413;DHT22;7805;49.554;7.632;2022-10-22T13:56:15;32.90;61.40
15413;DHT22;7805;49.554;7.632;2022-10-22T13:58:43;31.10;63.80
15413;DHT22;7805;49.554;7.632;2022-10-22T14:03:47;28.50;70.60
15413;DHT22;7805;49.554;7.632;2022-10-22T14:06:15;27.40;74.00
15413;DHT22;7805;49.554;7.632;2022-10-22T14:08:43;26.70;77.50
15413;DHT22;7805;49.554;7.632;2022-10-22T14:11:12;26.20;80.10
15413;DHT22;7805;49.554;7.632;2022-10-22T14:13:38;25.70;82.70
15413;DHT22;7805;49.554;7.632;2022-10-22T14:16:06;25.40;85.00
15413;DHT22;7805;49.554;7.632;2022-10-22T14:18:33;25.10;86.70
15413;DHT22;7805;49.554;7.632;2022-10-22T14:21:02;24.90;87.70
15413;DHT22;7805;49.554;7.632;2022-10-22T14:23:33;24.60;88.90
15413;DHT22;7805;49.554;7.632;2022-10-22T14:26:01;24.30;90.70
15413;DHT22;7805;49.554;7.632;2022-10-22T14:28:26;24.20;91.60
15413;DHT22;7805;49.554;7.632;2022-10-22T14:30:52;24.20;92.20
15413;DHT22;7805;49.554;7.632;2022-10-22T14:33:27;24.10;92.60
15413;DHT22;7805;49.554;7.632;2022-10-22T14:35:53;24.10;93.20
15413;DHT22;7805;49.554;7.632;2022-10-22T14:38:19;24.00;93.60
15413;DHT22;7805;49.554;7.632;2022-10-22T14:40:45;24.00;94.10
15413;DHT22;7805;49.554;7.632;2022-10-22T14:43:23;24.00;94.50
15413;DHT22;7805;49.554;7.632;2022-10-22T14:45:50;24.00;94.80
15413;DHT22;7805;49.554;7.632;2022-10-22T14:48:16;23.90;94.50
15413;DHT22;7805;49.554;7.632;2022-10-22T14:50:43;23.90;94.80
15413;DHT22;7805;49.554;7.632;2022-10-22T14:53:09;23.80;95.10
15413;DHT22;7805;49.554;7.632;2022-10-22T14:55:35;23.80;95.10
15413;DHT22;7805;49.554;7.632;2022-10-22T14:58:01;23.60;95.10
15413;DHT22;7805;49.554;7.632;2022-10-22T15:00:26;23.30;95.90
15413;DHT22;7805;49.554;7.632;2022-10-22T15:02:52;23.30;96.30
15413;DHT22;7805;49.554;7.632;2022-10-22T15:05:20;23.40;96.50
15413;DHT22;7805;49.554;7.632;2022-10-22T15:07:46;22.80;96.50
15413;DHT22;7805;49.554;7.632;2022-10-22T15:10:12;23.60;96.40
15413;DHT22;7805;49.554;7.632;2022-10-22T15:12:37;23.60;96.40
15413;DHT22;7805;49.554;7.632;2022-10-22T15:15:03;23.80;96.10
15413;DHT22;7805;49.554;7.632;2022-10-22T15:17:29;24.00;96.00
15413;DHT22;7805;49.554;7.632;2022-10-22T15:19:55;24.00;96.20
15413;DHT22;7805;49.554;7.632;2022-10-22T15:22:23;24.10;96.20
15413;DHT22;7805;49.554;7.632;2022-10-22T15:24:49;24.10;95.80
15413;DHT22;7805;49.554;7.632;2022-10-22T15:27:16;23.90;95.90
15413;DHT22;7805;49.554;7.632;2022-10-22T15:29:42;23.70;96.50
15413;DHT22;7805;49.554;7.632;2022-10-22T15:32:08;23.60;97.00
15413;DHT22;7805;49.554;7.632;2022-10-22T15:34:37;23.60;97.30
15413;DHT22;7805;49.554;7.632;2022-10-22T15:37:07;23.50;97.80
15413;DHT22;7805;49.554;7.632;2022-10-22T15:39:33;23.40;98.10
15413;DHT22;7805;49.554;7.632;2022-10-22T15:41:59;23.30;98.60
15413;DHT22;7805;49.554;7.632;2022-10-22T15:44:27;23.10;99.00
15413;DHT22;7805;49.554;7.632;2022-10-22T15:46:53;22.90;99.50
15413;DHT22;7805;49.554;7.632;2022-10-22T15:49:20;22.90;99.90
15413;DHT22;7805;49.554;7.632;2022-10-22T15:51:46;22.40;99.90
15413;DHT22;7805;49.554;7.632;2022-10-22T15:54:14;22.00;99.90
15413;DHT22;7805;49.554;7.632;2022-10-22T15:56:40;21.70;99.90
15413;DHT22;7805;49.554;7.632;2022-10-22T15:59:06;21.50;99.90
15413;DHT22;7805;49.554;7.632;2022-10-22T16:01:33;21.30;99.90
15413;DHT22;7805;49.554;7.632;2022-10-22T16:03:59;21.20;99.90
15413;DHT22;7805;49.554;7.632;2022-10-22T16:06:28;21.10;99.90
15413;DHT22;7805;49.554;7.632;2022-10-22T16:08:56;20.80;99.90
15413;DHT22;7805;49.554;7.632;2022-10-22T16:11:22;20.50;99.90
15413;DHT22;7805;49.554;7.632;2022-10-22T16:13:52;20.20;99.90
15413;DHT22;7805;49.554;7.632;2022-10-22T16:16:19;20.20;99.90
15413;DHT22;7805;49.554;7.632;2022-10-22T16:18:45;20.10;99.90
15413;DHT22;7805;49.554;7.632;2022-10-22T16:21:12;20.20;99.90
15413;DHT22;7805;49.554;7.632;2022-10-22T16:23:41;19.70;99.90
15413;DHT22;7805;49.554;7.632;2022-10-22T16:26:07;19.70;99.90
15413;DHT22;7805;49.554;7.632;2022-10-22T16:28:33;19.40;99.90
15413;DHT22;7805;49.554;7.632;2022-10-22T16:31:03;19.20;99.90
15413;DHT22;7805;49.554;7.632;2022-10-22T16:33:29;19.10;99.90
15413;DHT22;7805;49.554;7.632;2022-10-22T16:35:55;19.00;99.90
15413;DHT22;7805;49.554;7.632;2022-10-22T16:38:20;18.90;99.90
15413;DHT22;7805;49.554;7.632;2022-10-22T16:40:46;18.50;99.90
15413;DHT22;7805;49.554;7.632;2022-10-22T16:43:11;18.30;99.90
15413;DHT22;7805;49.554;7.632;2022-10-22T16:45:37;18.30;99.90
15413;DHT22;7805;49.554;7.632;2022-10-22T16:48:03;18.30;99.90
15413;DHT22;7805;49.554;7.632;2022-10-22T16:50:28;18.20;99.90
15413;DHT22;7805;49.554;7.632;2022-10-22T16:52:54;18.20;99.90
15413;DHT22;7805;49.554;7.632;2022-10-22T16:55:20;18.10;99.90
15413;DHT22;7805;49.554;7.632;2022-10-22T16:57:49;18.30;99.90
15413;DHT22;7805;49.554;7.632;2022-10-22T17:00:16;17.80;99.90
15413;DHT22;7805;49.554;7.632;2022-10-22T17:02:42;17.70;99.90
15413;DHT22;7805;49.554;7.632;2022-10-22T17:05:07;17.90;99.90
15413;DHT22;7805;49.554;7.632;2022-10-22T17:07:33;17.70;99.90
15413;DHT22;7805;49.554;7.632;2022-10-22T17:09:59;17.70;99.90
15413;DHT22;7805;49.554;7.632;2022-10-22T17:12:25;17.30;99.90
15413;DHT22;7805;49.554;7.632;2022-10-22T17:14:51;17.50;99.90
15413;DHT22;7805;49.554;7.632;2022-10-22T17:17:16;17.30;99.90
15413;DHT22;7805;49.554;7.632;2022-10-22T17:19:42;17.20;99.90
15413;DHT22;7805;49.554;7.632;2022-10-22T17:22:07;17.20;99.90
15413;DHT22;7805;49.554;7.632;2022-10-22T17:24:33;17.10;99.90
15413;DHT22;7805;49.554;7.632;2022-10-22T17:26:59;17.10;99.90
15413;DHT22;7805;49.554;7.632;2022-10-22T17:29:25;17.00;99.90
15413;DHT22;7805;49.554;7.632;2022-10-22T17:31:51;17.00;99.90
15413;DHT22;7805;49.554;7.632;2022-10-22T17:34:17;15.50;99.90
15413;DHT22;7805;49.554;7.632;2022-10-22T17:36:43;17.00;99.90
15413;DHT22;7805;49.554;7.632;2022-10-22T17:39:12;16.80;99.90
15413;DHT22;7805;49.554;7.632;2022-10-22T17:41:39;16.80;99.90
15413;DHT22;7805;49.554;7.632;2022-10-22T17:44:07;16.70;99.90
15413;DHT22;7805;49.554;7.632;2022-10-22T17:46:33;16.50;99.90
15413;DHT22;7805;49.554;7.632;2022-10-22T17:49:04;16.50;99.90